CLM2 weather

Leamington Airport
Leamington, Ontario, Canada

Public forecast

Using degrees Celsius for public forecast. Weather courtesy of forecast.io.

METAR (pilot weather report)

Closest report is Windsor Airport, 24.4 nm (45.1 km) NW. Retrieved 2019/05/21 12:00 UTC (29 minutes ago):

CYQG 211200Z AUTO VRB02KT 9SM OVC180 10/07 A3018 RMK SLP225

TAF (pilot weather forecast)

Closest forecast is Windsor Airport, 24.4 nm (45.1 km) NW. Retrieved 2019/05/21 12:39 UTC (0 seconds ago):

TAF CYQG 211138Z 2112/2212 VRB03KT P6SM SCT150 BKN240 BECMG 2113/2115 04008KT FM211800 05012KT P6SM BKN160 FM220600 09010KT P6SM BKN080 BKN180 RMK FCST BASED ON AUTO OBS. NXT FCST BY 211800Z